createdAt,value
2019-04-23T00:02:58.972Z,101862.02
2019-04-23T00:05:30.328Z,101860.91
2019-04-23T00:07:55.908Z,101860.69
2019-04-23T00:10:29.388Z,101866.95
2019-04-23T00:12:59.289Z,101855.18
2019-04-23T00:15:58.643Z,101862.88
2019-04-23T00:18:30.147Z,101860.46
2019-04-23T00:21:01.567Z,101857.94
2019-04-23T00:23:35.067Z,101856.58
2019-04-23T00:26:14.775Z,101853.25
2019-04-23T00:28:50.275Z,101854.49
2019-04-23T00:31:32.894Z,101847.62
2019-04-23T00:33:51.172Z,101853.16
2019-04-23T00:36:32.018Z,101847.74
2019-04-23T00:38:54.009Z,101842.61
2019-04-23T00:41:39.186Z,101851.61
2019-04-23T00:44:15.097Z,101840.11
2019-04-23T00:46:45.171Z,101837.59
2019-04-23T00:49:19.768Z,101845.28
2019-04-23T00:51:56.969Z,101832.88
2019-04-23T00:54:43.459Z,101842.64
2019-04-23T00:57:01.158Z,101847.14
2019-04-23T00:59:38.709Z,101834.66
2019-04-23T01:02:02.727Z,101840.63
2019-04-23T01:04:41.869Z,101838.86
2019-04-23T01:07:14.614Z,101839.02
2019-04-23T01:09:56.122Z,101845.77
2019-04-23T01:12:31.270Z,101839.78
2019-04-23T01:14:57.373Z,101844.34
2019-04-23T01:17:51.121Z,101843.24
2019-04-23T01:20:08.071Z,101837.66
2019-04-23T01:22:25.152Z,101841.33
2019-04-23T01:25:11.076Z,101836.00
2019-04-23T01:28:04.440Z,101832.89
2019-04-23T01:30:34.313Z,101825.16
2019-04-23T01:33:12.249Z,101824.81
2019-04-23T01:36:01.487Z,101829.09
2019-04-23T01:38:18.465Z,101823.63
2019-04-23T01:40:46.140Z,101820.63
2019-04-23T01:43:26.425Z,101822.28
2019-04-23T01:45:56.167Z,101827.94
2019-04-23T01:48:35.708Z,101820.71
2019-04-23T01:51:02.538Z,101816.55
2019-04-23T01:53:42.324Z,101809.65
2019-04-23T01:56:14.006Z,101814.37
2019-04-23T02:01:25.806Z,101803.00
2019-04-23T02:04:07.771Z,101807.67
2019-04-23T02:09:18.386Z,101805.37
2019-04-23T02:11:42.159Z,101807.06
2019-04-23T02:14:14.348Z,101805.42
2019-04-23T02:16:45.935Z,101803.25
2019-04-23T02:19:23.838Z,101801.41
2019-04-23T02:22:06.865Z,101799.72
2019-04-23T02:27:13.527Z,101798.34
2019-04-23T02:29:57.431Z,101794.95
2019-04-23T02:32:19.600Z,101794.13
2019-04-23T02:37:45.886Z,101793.50
2019-04-23T02:40:32.119Z,101785.34
2019-04-23T02:45:29.737Z,101788.44
2019-04-23T02:50:40.499Z,101786.70
2019-04-23T02:53:20.223Z,101782.39
2019-04-23T02:56:07.690Z,101783.42
2019-04-23T03:01:06.405Z,101781.41
2019-04-23T03:08:33.029Z,101775.53
2019-04-23T03:13:51.058Z,101774.73
2019-04-23T03:16:33.885Z,101773.64
2019-04-23T03:27:18.801Z,101763.86
2019-04-23T03:29:49.738Z,101763.31
2019-04-23T03:42:33.100Z,101764.12
2019-04-23T03:50:14.784Z,101757.88
2019-04-23T03:52:46.537Z,101758.16
2019-04-23T03:55:30.287Z,101755.37
2019-04-23T03:57:52.232Z,101756.42
2019-04-23T04:00:33.356Z,101754.23
2019-04-23T04:05:45.507Z,101753.64
2019-04-23T04:08:13.723Z,101746.64
2019-04-23T04:13:22.762Z,101751.63
2019-04-23T04:15:57.243Z,101750.52
2019-04-23T04:23:45.384Z,101746.12
2019-04-23T04:26:07.102Z,101754.69
2019-04-23T04:31:16.254Z,101750.40
2019-04-23T04:36:28.139Z,101758.40
2019-04-23T04:38:57.198Z,101752.44
2019-04-23T04:41:31.954Z,101759.00
2019-04-23T04:44:17.146Z,101746.59
2019-04-23T04:46:47.768Z,101748.06
2019-04-23T04:49:15.086Z,101755.70
2019-04-23T04:56:49.770Z,101758.14
2019-04-23T04:59:26.247Z,101753.34
2019-04-23T05:02:09.366Z,101759.92
2019-04-23T05:07:11.038Z,101753.64
2019-04-23T05:09:48.551Z,101753.48
2019-04-23T05:12:18.949Z,101754.09
2019-04-23T05:14:59.654Z,101756.91
2019-04-23T05:17:27.969Z,101757.06
2019-04-23T05:19:58.956Z,101750.84
2019-04-23T05:22:30.429Z,101758.55
2019-04-23T05:24:57.274Z,101749.38
2019-04-23T05:27:40.638Z,101754.03
2019-04-23T05:30:15.247Z,101744.27
2019-04-23T05:32:43.752Z,101736.37
2019-04-23T05:35:20.286Z,101733.02
2019-04-23T05:37:59.029Z,101729.30
2019-04-23T05:40:30.516Z,101731.64
2019-04-23T05:42:59.037Z,101722.58
2019-04-23T05:50:52.527Z,101724.15
2019-04-23T05:53:13.431Z,101716.09
2019-04-23T05:55:51.740Z,101717.39
2019-04-23T05:58:23.239Z,101716.41
2019-04-23T06:01:08.744Z,101711.50
2019-04-23T06:03:30.920Z,101712.20
2019-04-23T06:06:11.227Z,101711.22
2019-04-23T06:08:39.109Z,101712.43
2019-04-23T06:11:25.573Z,101720.30
2019-04-23T06:13:56.137Z,101715.18
2019-04-23T06:16:24.860Z,101721.86
2019-04-23T06:18:59.345Z,101704.95
2019-04-23T06:21:33.960Z,101700.44
2019-04-23T06:24:10.403Z,101703.11
2019-04-23T06:26:40.081Z,101693.16
2019-04-23T06:29:25.695Z,101686.23
2019-04-23T06:36:59.883Z,101672.45
2019-04-23T06:39:42.753Z,101674.76
2019-04-23T06:42:07.807Z,101678.86
2019-04-23T06:44:49.827Z,101676.05
2019-04-23T06:47:30.851Z,101675.77
2019-04-23T06:52:21.763Z,101654.27
2019-04-23T06:57:32.949Z,101643.19
2019-04-23T07:00:08.031Z,101659.00
2019-04-23T07:02:47.629Z,101649.28
2019-04-23T07:05:15.884Z,101645.67
2019-04-23T07:07:55.234Z,101649.44
2019-04-23T07:10:28.351Z,101642.77
2019-04-23T07:12:59.370Z,101638.90
2019-04-23T07:18:07.547Z,101621.99
2019-04-23T07:20:40.053Z,101623.60
2019-04-23T07:23:19.034Z,101621.75
2019-04-23T07:25:55.930Z,101621.20
2019-04-23T07:28:26.103Z,101613.22
2019-04-23T07:31:02.409Z,101602.34
2019-04-23T07:33:39.810Z,101601.49
2019-04-23T07:36:08.554Z,101605.98
2019-04-23T07:38:58.289Z,101604.36
2019-04-23T07:41:32.495Z,101594.05
2019-04-23T07:44:14.278Z,101602.79
2019-04-23T07:46:47.755Z,101593.45
2019-04-23T07:49:11.405Z,101594.77
2019-04-23T07:51:46.886Z,101592.98
2019-04-23T07:54:22.690Z,101584.76
2019-04-23T07:57:07.566Z,101593.48
2019-04-23T07:59:36.339Z,101585.30
2019-04-23T08:02:06.224Z,101575.19
2019-04-23T08:04:46.182Z,101573.65
2019-04-23T08:09:48.059Z,101568.73
2019-04-23T08:12:25.516Z,101579.85
2019-04-23T08:14:53.544Z,101571.72
2019-04-23T08:17:22.593Z,101577.67
2019-04-23T08:20:00.961Z,101561.05
2019-04-23T08:22:37.225Z,101551.31
2019-04-23T08:25:19.121Z,101557.31
2019-04-23T08:27:48.578Z,101561.36
2019-04-23T08:30:25.514Z,101546.47
2019-04-23T08:33:03.693Z,101540.16
2019-04-23T08:35:36.204Z,101543.92
2019-04-23T08:43:38.915Z,101538.28
2019-04-23T08:46:29.723Z,101538.66
2019-04-23T08:48:58.699Z,101527.32
2019-04-23T08:54:03.430Z,101526.98
2019-04-23T08:56:41.127Z,101515.37
2019-04-23T08:59:17.772Z,101517.92
2019-04-23T09:01:59.434Z,101521.05
2019-04-23T09:04:21.788Z,101505.17
2019-04-23T09:06:53.120Z,101497.72
2019-04-23T09:09:30.130Z,101488.75
2019-04-23T09:11:58.111Z,101495.08
2019-04-23T09:14:31.902Z,101501.19
2019-04-23T09:17:11.156Z,101487.20
2019-04-23T09:19:54.521Z,101493.28
2019-04-23T09:27:27.425Z,101468.17
2019-04-23T09:30:00.048Z,101464.73
2019-04-23T09:35:14.319Z,101470.09
2019-04-23T09:37:47.117Z,101460.61
2019-04-23T09:40:47.442Z,101450.70
2019-04-23T09:43:06.826Z,101460.66
2019-04-23T09:45:50.187Z,101447.30
2019-04-23T09:48:10.208Z,101442.79
2019-04-23T09:55:53.087Z,101440.17
2019-04-23T09:58:30.307Z,101428.52
2019-04-23T10:01:21.681Z,101426.34
2019-04-23T10:03:43.073Z,101429.09
2019-04-23T10:06:09.711Z,101423.18
2019-04-23T10:08:43.022Z,101418.91
2019-04-23T10:11:11.920Z,101420.75
2019-04-23T10:13:45.686Z,101415.86
2019-04-23T10:16:21.535Z,101402.98
2019-04-23T10:18:55.029Z,101399.27
2019-04-23T10:21:29.084Z,101406.82
2019-04-23T10:24:01.506Z,101400.34
2019-04-23T10:26:34.385Z,101403.84
2019-04-23T10:29:09.741Z,101390.17
2019-04-23T10:31:42.213Z,101400.14
2019-04-23T10:34:17.068Z,101392.30
2019-04-23T10:36:49.544Z,101391.20
2019-04-23T10:39:26.367Z,101393.11
2019-04-23T10:41:57.579Z,101378.34
2019-04-23T10:44:35.352Z,101372.53
2019-04-23T10:47:58.953Z,101370.36
2019-04-23T10:50:52.833Z,101354.31
2019-04-23T10:56:11.337Z,101349.16
2019-04-23T10:58:32.117Z,101343.44
2019-04-23T11:01:05.087Z,101338.46
2019-04-23T11:03:53.962Z,101339.34
2019-04-23T11:06:21.402Z,101343.75
2019-04-23T11:08:40.531Z,101348.03
2019-04-23T11:11:21.900Z,101331.67
2019-04-23T11:14:04.477Z,101335.25
2019-04-23T11:19:04.339Z,101320.25
2019-04-23T11:21:42.738Z,101328.34
2019-04-23T11:24:35.654Z,101309.88
2019-04-23T11:26:49.849Z,101315.27
2019-04-23T11:29:27.990Z,101310.32
2019-04-23T11:32:35.184Z,101304.45
2019-04-23T11:34:47.974Z,101297.49
2019-04-23T11:37:03.986Z,101297.51
2019-04-23T11:39:45.897Z,101301.51
2019-04-23T11:42:32.328Z,101295.48
2019-04-23T11:44:49.863Z,101291.05
2019-04-23T11:47:58.391Z,101286.33
2019-04-23T11:50:01.975Z,101285.54
2019-04-23T11:52:36.631Z,101288.27
2019-04-23T11:55:03.074Z,101285.54
2019-04-23T11:58:02.720Z,101292.94
2019-04-23T12:02:49.705Z,101274.84
2019-04-23T12:05:41.403Z,101283.48
2019-04-23T12:08:17.010Z,101267.41
2019-04-23T12:13:35.438Z,101279.00
2019-04-23T12:16:00.463Z,101261.47
2019-04-23T12:21:12.865Z,101264.07
2019-04-23T12:23:50.603Z,101269.26
2019-04-23T12:26:19.735Z,101267.70
2019-04-23T12:28:53.640Z,101260.43
2019-04-23T12:31:26.369Z,101251.23
2019-04-23T12:33:59.451Z,101256.73
2019-04-23T12:36:39.509Z,101247.81
2019-04-23T12:39:11.142Z,101243.85
2019-04-23T12:41:43.339Z,101237.75
2019-04-23T12:44:17.962Z,101244.19
2019-04-23T12:49:44.581Z,101220.44
2019-04-23T12:52:13.021Z,101233.83
2019-04-23T12:57:18.600Z,101222.23
2019-04-23T12:59:50.239Z,101214.99
2019-04-23T13:02:33.495Z,101220.57
2019-04-23T13:05:04.674Z,101212.53
2019-04-23T13:07:38.105Z,101209.53
2019-04-23T13:10:13.205Z,101212.58
2019-04-23T13:13:04.228Z,101200.91
2019-04-23T13:15:17.271Z,101190.20
2019-04-23T13:20:23.547Z,101190.35
2019-04-23T13:23:01.865Z,101170.78
2019-04-23T13:28:13.619Z,101165.83
2019-04-23T13:36:00.993Z,101142.20
2019-04-23T13:43:40.101Z,101123.05
2019-04-23T13:46:23.008Z,101137.80
2019-04-23T13:48:41.918Z,101136.62
2019-04-23T13:51:31.983Z,101126.52
2019-04-23T13:56:40.647Z,101117.23
2019-04-23T13:59:05.690Z,101120.91
2019-04-23T14:01:42.332Z,101109.16
2019-04-23T14:04:21.315Z,101106.21
2019-04-23T14:06:49.522Z,101103.00
2019-04-23T14:09:31.585Z,101097.39
2019-04-23T14:11:51.535Z,101091.20
2019-04-23T14:14:43.704Z,101094.72
2019-04-23T14:17:18.668Z,101093.75
2019-04-23T14:19:38.288Z,101077.34
2019-04-23T14:22:51.310Z,101072.84
2019-04-23T14:27:26.571Z,101076.94
2019-04-23T14:30:05.538Z,101070.21
2019-04-23T14:32:29.095Z,101071.80
2019-04-23T14:35:19.943Z,101074.98
2019-04-23T14:37:54.889Z,101065.28
2019-04-23T14:40:21.723Z,101079.06
2019-04-23T14:43:02.254Z,101071.25
2019-04-23T14:45:47.076Z,101064.33
2019-04-23T14:48:04.302Z,101065.00
2019-04-23T14:50:46.308Z,101054.70
2019-04-23T14:55:57.242Z,101051.77
2019-04-23T14:58:31.288Z,101053.98
2019-04-23T15:01:16.043Z,101037.45
2019-04-23T15:03:39.929Z,101038.08
2019-04-23T15:06:29.495Z,101040.91
2019-04-23T15:08:50.069Z,101041.23
2019-04-23T15:11:26.370Z,101041.42
2019-04-23T15:13:52.153Z,101050.00
2019-04-23T15:19:11.655Z,101039.20
2019-04-23T15:29:02.727Z,101037.98
2019-04-23T15:31:57.639Z,101044.34
2019-04-23T15:34:23.755Z,101030.50
2019-04-23T15:37:13.535Z,101033.39
2019-04-23T15:39:38.086Z,101041.04
2019-04-23T15:44:49.077Z,101034.94
2019-04-23T15:47:36.087Z,101032.30
2019-04-23T15:49:59.158Z,101030.36
2019-04-23T15:52:37.504Z,101034.16
2019-04-23T15:55:01.522Z,101035.09
2019-04-23T16:00:25.854Z,101034.00
2019-04-23T16:02:17.626Z,101030.84
2019-04-23T16:04:51.108Z,101030.88
2019-04-23T16:07:41.342Z,101039.79
2019-04-23T16:10:28.479Z,101031.32
2019-04-23T16:13:02.504Z,101031.21
2019-04-23T16:15:35.507Z,101038.50
2019-04-23T16:18:23.686Z,101036.13
2019-04-23T16:23:21.616Z,101034.80
2019-04-23T16:26:01.901Z,101040.25
2019-04-23T16:28:42.270Z,101048.37
2019-04-23T16:31:08.080Z,101027.44
2019-04-23T16:33:39.583Z,101040.37
2019-04-23T16:36:19.220Z,101026.11
2019-04-23T16:38:52.218Z,101025.42
2019-04-23T16:41:24.415Z,101027.31
2019-04-23T16:44:07.965Z,101027.66
2019-04-23T16:46:31.769Z,101042.88
2019-04-23T16:49:15.358Z,101021.28
2019-04-23T16:51:59.740Z,101017.56
2019-04-23T16:54:19.327Z,101017.17
2019-04-23T16:57:12.020Z,101017.97
2019-04-23T16:59:18.502Z,101023.41
2019-04-23T17:02:01.614Z,101014.89
2019-04-23T17:04:30.723Z,101026.87
2019-04-23T17:07:02.312Z,101018.81
2019-04-23T17:09:46.231Z,101022.96
2019-04-23T17:12:10.473Z,101013.60
2019-04-23T17:14:49.714Z,101013.70
2019-04-23T17:17:15.630Z,101010.69
2019-04-23T17:19:50.433Z,101008.73
2019-04-23T17:22:24.930Z,101015.73
2019-04-23T17:25:05.553Z,101017.10
2019-04-23T17:27:41.518Z,101016.57
2019-04-23T17:30:11.973Z,101024.44
2019-04-23T17:32:46.857Z,101031.08
2019-04-23T17:35:23.934Z,101027.23
2019-04-23T17:38:00.428Z,101048.27
2019-04-23T17:40:30.604Z,101035.89
2019-04-23T17:43:01.501Z,101036.32
2019-04-23T17:50:58.025Z,101038.51
2019-04-23T17:53:26.839Z,101052.27
2019-04-23T17:56:08.926Z,101054.82
2019-04-23T17:58:35.402Z,101055.34
2019-04-23T18:01:22.331Z,101059.36
2019-04-23T18:03:55.881Z,101063.07
2019-04-23T18:06:37.281Z,101064.05
2019-04-23T18:09:11.042Z,101077.92
2019-04-23T18:11:31.204Z,101085.06
2019-04-23T18:16:48.118Z,101097.30
2019-04-23T18:19:16.934Z,101102.72
2019-04-23T18:21:58.958Z,101106.59
2019-04-23T18:24:27.924Z,101101.44
2019-04-23T18:27:06.788Z,101108.15
2019-04-23T18:37:29.996Z,101123.69
2019-04-23T18:40:00.421Z,101124.19
2019-04-23T18:42:40.786Z,101115.98
2019-04-23T18:45:16.713Z,101111.83
2019-04-23T18:47:47.492Z,101117.66
2019-04-23T18:50:24.906Z,101130.14
2019-04-23T18:55:37.107Z,101129.12
2019-04-23T18:58:02.255Z,101137.08
2019-04-23T19:00:45.667Z,101136.89
2019-04-23T19:03:19.724Z,101133.98
2019-04-23T19:06:00.341Z,101137.45
2019-04-23T19:08:54.172Z,101136.12
2019-04-23T19:11:38.429Z,101120.56
2019-04-23T19:14:03.140Z,101125.35
2019-04-23T19:16:41.609Z,101123.19
2019-04-23T19:19:09.641Z,101117.88
2019-04-23T19:22:06.913Z,101118.08
2019-04-23T19:24:14.065Z,101121.56
2019-04-23T19:29:36.865Z,101111.05
2019-04-23T19:31:56.896Z,101113.92
2019-04-23T19:39:38.188Z,101112.99
2019-04-23T19:42:26.705Z,101105.61
2019-04-23T19:49:50.768Z,101096.26
2019-04-23T19:52:52.081Z,101090.77
2019-04-23T19:55:00.043Z,101080.86
2019-04-23T19:57:54.948Z,101069.03
2019-04-23T20:00:14.073Z,101064.41
2019-04-23T20:03:04.019Z,101060.03
2019-04-23T20:05:13.523Z,101056.04
2019-04-23T20:08:04.140Z,101049.69
2019-04-23T20:10:27.656Z,101046.32
2019-04-23T20:13:02.181Z,101040.22
2019-04-23T20:15:52.147Z,101032.80
2019-04-23T20:18:05.140Z,101027.01
2019-04-23T20:23:29.846Z,101029.98
2019-04-23T20:28:51.184Z,101015.59
2019-04-23T20:32:06.026Z,101028.46
2019-04-23T20:34:14.124Z,101015.05
2019-04-23T20:49:43.012Z,101000.60
2019-04-23T20:52:07.124Z,101004.14
2019-04-23T21:00:04.747Z,100995.99
2019-04-23T21:10:34.808Z,100989.50
2019-04-23T21:18:15.984Z,100987.14
2019-04-23T21:25:49.047Z,100981.52
2019-04-23T21:28:35.906Z,100982.04
2019-04-23T21:31:09.033Z,100978.53
2019-04-23T21:33:43.832Z,100980.48
2019-04-23T21:39:40.764Z,100969.67
2019-04-23T21:41:56.775Z,100979.75
2019-04-23T21:44:46.814Z,100974.02
2019-04-23T21:47:06.025Z,100977.69
2019-04-23T21:49:57.965Z,100962.40
2019-04-23T21:52:11.447Z,100971.02
2019-04-23T21:57:31.006Z,100967.67
2019-04-23T21:59:55.475Z,100968.20
2019-04-23T22:02:38.469Z,100959.36
2019-04-23T22:05:09.058Z,100949.88
2019-04-23T22:08:20.546Z,100953.52
2019-04-23T22:10:09.199Z,100946.65
2019-04-23T22:13:09.502Z,100947.06
2019-04-23T22:15:22.252Z,100938.97
2019-04-23T22:17:50.200Z,100941.69
2019-04-23T22:25:56.465Z,100933.81
2019-04-23T22:28:40.361Z,100936.13
2019-04-23T22:31:23.140Z,100934.80
2019-04-23T22:34:01.504Z,100934.34
2019-04-23T22:36:20.998Z,100926.95
2019-04-23T22:39:11.584Z,100928.92
2019-04-23T22:41:49.115Z,100927.51
2019-04-23T22:44:32.903Z,100921.82
2019-04-23T22:47:03.702Z,100925.48
2019-04-23T22:49:47.419Z,100921.08
2019-04-23T22:52:23.077Z,100921.09
2019-04-23T22:55:02.062Z,100914.52
2019-04-23T23:00:19.362Z,100908.66
2019-04-23T23:06:10.976Z,100907.86
2019-04-23T23:08:31.241Z,100903.67
2019-04-23T23:11:12.294Z,100900.94
2019-04-23T23:14:07.114Z,100900.00
2019-04-23T23:16:27.821Z,100900.71
2019-04-23T23:19:14.521Z,100899.36
2019-04-23T23:21:59.582Z,100895.89
2019-04-23T23:24:18.630Z,100894.60
2019-04-23T23:29:50.195Z,100882.06
2019-04-23T23:32:24.460Z,100883.48
2019-04-23T23:35:14.624Z,100886.03
2019-04-23T23:37:37.226Z,100884.80
2019-04-23T23:40:20.318Z,100889.26
2019-04-23T23:42:56.194Z,100886.41
2019-04-23T23:48:08.049Z,100889.05
2019-04-23T23:53:29.604Z,100879.34
2019-04-23T23:56:12.719Z,100875.88
2019-04-23T23:58:53.978Z,100875.61
